createdAt,value
2023-02-21T00:01:21.276Z,5.57
2023-02-21T00:04:43.587Z,4.68
2023-02-21T00:08:05.597Z,4.53
2023-02-21T00:11:27.084Z,5.20
2023-02-21T00:14:48.545Z,5.00
2023-02-21T00:18:09.702Z,4.47
2023-02-21T00:21:31.718Z,7.07
2023-02-21T00:24:53.970Z,5.10
2023-02-21T00:28:15.265Z,6.15
2023-02-21T00:31:38.441Z,4.87
2023-02-21T00:35:00.823Z,5.20
2023-02-21T00:38:25.533Z,5.68
2023-02-21T00:41:48.552Z,6.25
2023-02-21T00:45:10.482Z,5.90
2023-02-21T00:48:39.837Z,6.37
2023-02-21T00:52:01.297Z,5.50
2023-02-21T00:55:22.838Z,6.05
2023-02-21T00:58:44.335Z,4.60
2023-02-21T01:02:05.837Z,6.85
2023-02-21T01:05:28.028Z,5.87
2023-02-21T01:08:51.668Z,6.05
2023-02-21T01:12:13.994Z,5.18
2023-02-21T01:15:35.887Z,3.03
2023-02-21T01:18:57.996Z,5.03
2023-02-21T01:22:20.890Z,3.93
2023-02-21T01:25:42.392Z,4.60
2023-02-21T01:29:06.542Z,3.08
2023-02-21T01:32:28.772Z,3.22
2023-02-21T01:35:50.131Z,3.33
2023-02-21T01:39:11.538Z,3.47
2023-02-21T01:42:32.413Z,2.90
2023-02-21T01:46:06.018Z,3.47
2023-02-21T01:49:37.954Z,2.50
2023-02-21T01:53:00.175Z,2.08
2023-02-21T01:56:22.792Z,1.77
2023-02-21T01:59:44.770Z,2.00
2023-02-21T02:03:17.901Z,1.95
2023-02-21T02:06:39.264Z,1.98
2023-02-21T02:10:02.022Z,1.63
2023-02-21T02:13:53.336Z,1.83
2023-02-21T02:17:27.785Z,1.92
2023-02-21T02:21:07.991Z,1.75
2023-02-21T02:24:48.093Z,1.90
2023-02-21T02:27:54.393Z,1.70
2023-02-21T02:31:28.314Z,1.80
2023-02-21T02:34:31.867Z,1.63
2023-02-21T02:38:03.570Z,1.92
2023-02-21T02:41:51.888Z,1.60
2023-02-21T02:45:03.758Z,1.17
2023-02-21T02:48:14.673Z,1.00
2023-02-21T02:51:18.396Z,1.00
2023-02-21T02:54:22.265Z,1.13
2023-02-21T02:57:26.038Z,0.90
2023-02-21T03:00:34.724Z,1.20
2023-02-21T03:03:44.485Z,1.07
2023-02-21T03:07:06.362Z,0.90
2023-02-21T03:10:24.657Z,1.08
2023-02-21T03:14:15.668Z,1.13
2023-02-21T03:17:23.114Z,1.00
2023-02-21T03:20:28.887Z,1.10
2023-02-21T03:23:34.888Z,1.30
2023-02-21T03:26:42.606Z,1.38
2023-02-21T03:30:10.732Z,1.20
2023-02-21T03:33:14.651Z,1.17
2023-02-21T03:36:17.394Z,1.10
2023-02-21T03:39:20.808Z,1.13
2023-02-21T03:42:24.682Z,1.20
2023-02-21T03:45:27.792Z,1.20
2023-02-21T03:48:50.530Z,1.13
2023-02-21T03:51:58.995Z,1.23
2023-02-21T03:55:02.586Z,1.33
2023-02-21T03:58:07.275Z,1.10
2023-02-21T04:01:12.742Z,1.25
2023-02-21T04:04:16.599Z,1.10
2023-02-21T04:07:21.674Z,1.37
2023-02-21T04:10:28.013Z,1.40
2023-02-21T04:13:32.530Z,1.20
2023-02-21T04:16:36.109Z,1.27
2023-02-21T04:19:38.792Z,1.10
2023-02-21T04:22:43.264Z,1.30
2023-02-21T04:25:48.474Z,1.40
2023-02-21T04:29:00.288Z,1.10
2023-02-21T04:32:03.874Z,1.48
2023-02-21T04:35:08.588Z,1.33
2023-02-21T04:38:12.674Z,2.03
2023-02-21T04:41:16.937Z,1.60
2023-02-21T04:44:20.244Z,1.27
2023-02-21T04:47:22.888Z,1.38
2023-02-21T04:50:25.793Z,1.58
2023-02-21T04:53:30.194Z,1.60
2023-02-21T04:56:34.106Z,1.48
2023-02-21T04:59:37.686Z,1.13
2023-02-21T05:02:43.509Z,1.50
2023-02-21T05:05:46.264Z,1.58
2023-02-21T05:08:49.460Z,0.97
2023-02-21T05:11:52.701Z,1.30
2023-02-21T05:14:55.265Z,1.42
2023-02-21T05:17:58.630Z,1.08
2023-02-21T05:21:03.344Z,1.48
2023-02-21T05:24:13.893Z,1.20
2023-02-21T05:27:18.684Z,1.20
2023-02-21T05:30:24.057Z,1.23
2023-02-21T05:33:27.690Z,1.50
2023-02-21T05:36:30.537Z,1.20
2023-02-21T05:39:33.270Z,1.20
2023-02-21T05:42:36.638Z,1.30
2023-02-21T05:45:39.247Z,1.15
2023-02-21T05:48:43.190Z,1.23
2023-02-21T05:51:46.075Z,1.23
2023-02-21T05:54:49.098Z,1.20
2023-02-21T05:57:53.600Z,1.58
2023-02-21T06:00:57.219Z,1.33
2023-02-21T06:04:00.834Z,1.10
2023-02-21T06:07:04.171Z,1.40
2023-02-21T06:10:07.822Z,1.40
2023-02-21T06:13:12.874Z,1.30
2023-02-21T06:16:16.217Z,1.55
2023-02-21T06:19:19.280Z,1.30
2023-02-21T06:22:21.858Z,1.55
2023-02-21T06:25:24.498Z,1.40
2023-02-21T06:28:31.427Z,1.48
2023-02-21T06:31:36.521Z,1.25
2023-02-21T06:34:39.373Z,1.35
2023-02-21T06:37:42.729Z,1.60
2023-02-21T06:40:46.303Z,1.40
2023-02-21T06:43:49.714Z,1.70
2023-02-21T06:46:54.928Z,1.48
2023-02-21T06:49:58.358Z,1.20
2023-02-21T06:53:01.210Z,1.50
2023-02-21T06:56:07.928Z,1.47
2023-02-21T06:59:11.302Z,1.20
2023-02-21T07:02:59.784Z,1.77
2023-02-21T07:06:19.284Z,1.80
2023-02-21T07:09:35.984Z,2.40
2023-02-21T07:12:41.907Z,2.60
2023-02-21T07:15:47.716Z,2.00
2023-02-21T07:18:50.860Z,1.42
2023-02-21T07:21:57.874Z,1.48
2023-02-21T07:25:19.669Z,8.45
2023-02-21T07:28:29.607Z,2.77
2023-02-21T07:31:33.506Z,1.65
2023-02-21T07:34:36.767Z,1.60
2023-02-21T07:38:06.916Z,1.40
2023-02-21T07:41:42.866Z,1.30
2023-02-21T07:45:03.440Z,1.30
2023-02-21T07:48:26.123Z,1.50
2023-02-21T07:51:40.820Z,1.30
2023-02-21T07:54:47.484Z,1.40
2023-02-21T07:57:54.910Z,1.75
2023-02-21T08:00:58.578Z,1.70
2023-02-21T08:04:02.090Z,1.30
2023-02-21T08:07:06.923Z,1.30
2023-02-21T08:10:13.408Z,1.40
2023-02-21T08:13:20.542Z,1.33
2023-02-21T08:16:24.458Z,1.20
2023-02-21T08:19:29.459Z,1.40
2023-02-21T08:22:32.273Z,1.60
2023-02-21T08:25:35.970Z,1.35
2023-02-21T08:28:39.149Z,1.20
2023-02-21T08:31:44.510Z,1.60
2023-02-21T08:34:51.003Z,1.75
2023-02-21T08:37:56.944Z,1.70
2023-02-21T08:41:00.540Z,1.50
2023-02-21T08:44:04.765Z,1.77
2023-02-21T08:47:14.661Z,1.40
2023-02-21T08:50:20.940Z,1.40
2023-02-21T08:53:23.780Z,1.67
2023-02-21T08:56:27.983Z,1.92
2023-02-21T08:59:33.727Z,2.10
2023-02-21T09:02:41.662Z,1.73
2023-02-21T09:05:47.562Z,2.50
2023-02-21T09:08:56.489Z,1.50
2023-02-21T09:12:08.969Z,1.70
2023-02-21T09:15:24.811Z,1.50
2023-02-21T09:18:33.487Z,1.87
2023-02-21T09:21:36.983Z,1.83
2023-02-21T09:24:44.792Z,1.35
2023-02-21T09:27:47.752Z,1.55
2023-02-21T09:30:52.067Z,1.67
2023-02-21T09:33:55.965Z,1.70
2023-02-21T09:36:59.841Z,1.40
2023-02-21T09:40:36.438Z,1.60
2023-02-21T09:43:59.440Z,2.53
2023-02-21T09:47:07.788Z,1.77
2023-02-21T09:50:22.577Z,1.30
2023-02-21T09:53:39.265Z,1.45
2023-02-21T09:56:42.286Z,1.60
2023-02-21T09:59:46.323Z,1.30
2023-02-21T10:03:15.276Z,1.63
2023-02-21T10:06:24.029Z,1.60
2023-02-21T10:09:57.231Z,1.52
2023-02-21T10:13:22.889Z,1.52
2023-02-21T10:16:34.102Z,1.70
2023-02-21T10:19:43.529Z,1.60
2023-02-21T10:22:49.439Z,1.23
2023-02-21T10:26:06.231Z,1.80
2023-02-21T10:29:24.525Z,2.00
2023-02-21T10:32:42.137Z,1.20
2023-02-21T10:35:59.006Z,1.50
2023-02-21T10:39:17.268Z,2.10
2023-02-21T10:42:42.862Z,1.88
2023-02-21T10:46:09.142Z,1.70
2023-02-21T10:49:19.194Z,1.67
2023-02-21T10:52:36.591Z,1.60
2023-02-21T10:55:44.613Z,1.30
2023-02-21T10:59:10.741Z,1.50
2023-02-21T11:02:57.731Z,1.60
2023-02-21T11:06:02.028Z,1.50
2023-02-21T11:09:34.069Z,1.30
2023-02-21T11:12:37.536Z,1.60
2023-02-21T11:15:41.838Z,1.80
2023-02-21T11:18:47.952Z,1.73
2023-02-21T11:22:01.304Z,1.40
2023-02-21T11:25:18.642Z,1.50
2023-02-21T11:28:28.591Z,1.80
2023-02-21T11:31:36.298Z,1.55
2023-02-21T11:34:51.468Z,1.80
2023-02-21T11:38:06.275Z,2.63
2023-02-21T11:41:21.266Z,2.33
2023-02-21T11:44:38.183Z,1.77
2023-02-21T11:47:55.299Z,1.60
2023-02-21T11:51:10.247Z,1.85
2023-02-21T11:54:14.254Z,1.65
2023-02-21T11:57:32.592Z,1.88
2023-02-21T12:01:05.805Z,1.90
2023-02-21T12:04:27.970Z,2.30
2023-02-21T12:07:36.078Z,2.88
2023-02-21T12:10:53.983Z,2.05
2023-02-21T12:14:12.553Z,2.20
2023-02-21T12:17:46.585Z,1.83
2023-02-21T12:22:02.850Z,1.70
2023-02-21T12:25:44.387Z,2.13
2023-02-21T12:29:08.013Z,2.53
2023-02-21T12:32:35.937Z,2.22
2023-02-21T12:36:02.679Z,1.90
2023-02-21T12:40:00.269Z,1.67
2023-02-21T12:43:23.785Z,1.92
2023-02-21T12:47:01.800Z,1.70
2023-02-21T12:50:16.127Z,1.60
2023-02-21T12:53:25.987Z,1.90
2023-02-21T12:57:18.404Z,1.80
2023-02-21T13:02:02.530Z,2.53
2023-02-21T13:05:20.013Z,2.10
2023-02-21T13:08:37.675Z,1.92
2023-02-21T13:12:01.531Z,1.50
2023-02-21T13:15:22.625Z,1.40
2023-02-21T13:18:39.559Z,1.50
2023-02-21T13:21:55.294Z,1.77
2023-02-21T13:25:12.876Z,1.60
2023-02-21T13:28:25.790Z,1.40
2023-02-21T13:31:39.321Z,1.58
2023-02-21T13:34:55.994Z,1.60
2023-02-21T13:38:01.846Z,1.85
2023-02-21T13:41:17.080Z,1.50
2023-02-21T13:44:25.831Z,2.50
2023-02-21T13:47:57.403Z,1.50
2023-02-21T13:51:01.618Z,1.58
2023-02-21T13:54:13.209Z,2.13
2023-02-21T13:57:31.838Z,1.60
2023-02-21T14:00:35.768Z,1.73
2023-02-21T14:03:44.327Z,1.42
2023-02-21T14:07:20.642Z,1.73
2023-02-21T14:10:44.521Z,1.83
2023-02-21T14:13:56.145Z,1.50
2023-02-21T14:17:06.174Z,1.47
2023-02-21T14:20:16.844Z,1.30
2023-02-21T14:23:42.261Z,1.80
2023-02-21T14:27:01.767Z,1.38
2023-02-21T14:30:30.305Z,1.40
2023-02-21T14:33:34.617Z,1.10
2023-02-21T14:36:38.798Z,1.40
2023-02-21T14:39:56.215Z,1.55
2023-02-21T14:43:23.256Z,1.20
2023-02-21T14:47:03.564Z,1.33
2023-02-21T14:50:38.213Z,1.20
2023-02-21T14:54:18.017Z,1.40
2023-02-21T14:57:42.638Z,1.27
2023-02-21T15:01:19.794Z,1.10
2023-02-21T15:04:30.249Z,1.40
2023-02-21T15:07:55.159Z,1.23
2023-02-21T15:11:19.953Z,1.55
2023-02-21T15:14:29.495Z,1.20
2023-02-21T15:17:35.026Z,1.25
2023-02-21T15:20:46.654Z,1.58
2023-02-21T15:24:01.929Z,1.00
2023-02-21T15:27:13.014Z,1.38
2023-02-21T15:30:23.575Z,1.42
2023-02-21T15:33:28.102Z,1.33
2023-02-21T15:36:33.044Z,1.63
2023-02-21T15:39:39.593Z,1.70
2023-02-21T15:42:45.431Z,1.63
2023-02-21T15:45:52.771Z,1.67
2023-02-21T15:49:00.031Z,1.80
2023-02-21T15:52:03.826Z,1.67
2023-02-21T15:55:29.421Z,1.50
2023-02-21T15:58:32.233Z,1.42
2023-02-21T16:01:35.658Z,1.60
2023-02-21T16:04:41.260Z,1.50
2023-02-21T16:07:45.970Z,1.40
2023-02-21T16:11:02.544Z,1.40
2023-02-21T16:14:05.469Z,1.80
2023-02-21T16:17:24.385Z,1.70
2023-02-21T16:20:38.849Z,1.70
2023-02-21T16:23:45.065Z,1.55
2023-02-21T16:27:02.962Z,1.30
2023-02-21T16:30:12.560Z,1.35
2023-02-21T16:33:18.288Z,1.67
2023-02-21T16:36:27.552Z,1.35
2023-02-21T16:39:30.957Z,1.58
2023-02-21T16:42:34.183Z,1.33
2023-02-21T16:45:37.163Z,1.40
2023-02-21T16:48:40.112Z,1.35
2023-02-21T16:51:45.171Z,1.50
2023-02-21T16:54:47.779Z,1.70
2023-02-21T16:57:53.956Z,1.53
2023-02-21T17:01:08.277Z,1.80
2023-02-21T17:04:24.191Z,1.70
2023-02-21T17:07:27.988Z,1.40
2023-02-21T17:10:32.774Z,1.50
2023-02-21T17:13:35.695Z,2.00
2023-02-21T17:16:39.675Z,1.60
2023-02-21T17:19:42.866Z,1.70
2023-02-21T17:22:45.850Z,2.15
2023-02-21T17:25:51.038Z,2.03
2023-02-21T17:28:53.936Z,2.07
2023-02-21T17:31:59.080Z,2.20
2023-02-21T17:35:01.867Z,2.28
2023-02-21T17:38:05.545Z,2.22
2023-02-21T17:41:09.476Z,2.20
2023-02-21T17:44:13.275Z,2.20
2023-02-21T17:47:18.684Z,2.05
2023-02-21T17:50:22.830Z,2.00
2023-02-21T17:53:25.773Z,1.90
2023-02-21T17:56:58.778Z,2.30
2023-02-21T18:00:28.424Z,2.27
2023-02-21T18:03:31.496Z,1.90
2023-02-21T18:06:34.376Z,1.40
2023-02-21T18:09:37.020Z,1.50
2023-02-21T18:12:40.544Z,1.55
2023-02-21T18:15:44.107Z,1.60
2023-02-21T18:18:47.766Z,1.40
2023-02-21T18:21:51.260Z,1.70
2023-02-21T18:24:55.111Z,1.60
2023-02-21T18:27:58.695Z,2.03
2023-02-21T18:31:02.354Z,1.63
2023-02-21T18:34:07.738Z,1.75
2023-02-21T18:37:10.980Z,1.80
2023-02-21T18:40:16.996Z,1.90
2023-02-21T18:43:25.254Z,1.90
2023-02-21T18:46:29.081Z,2.03
2023-02-21T18:49:38.631Z,2.10
2023-02-21T18:52:41.667Z,2.30
2023-02-21T18:55:44.955Z,2.10
2023-02-21T18:58:49.531Z,2.08
2023-02-21T19:01:55.024Z,1.83
2023-02-21T19:04:58.697Z,1.90
2023-02-21T19:08:01.931Z,2.03
2023-02-21T19:11:08.543Z,2.00
2023-02-21T19:14:12.265Z,2.00
2023-02-21T19:17:14.958Z,2.10
2023-02-21T19:20:19.883Z,2.08
2023-02-21T19:23:24.348Z,2.10
2023-02-21T19:26:29.719Z,2.53
2023-02-21T19:29:32.651Z,2.35
2023-02-21T19:32:37.412Z,2.07
2023-02-21T19:35:40.306Z,1.80
2023-02-21T19:38:43.269Z,2.10
2023-02-21T19:41:46.959Z,2.97
2023-02-21T19:44:49.988Z,2.90
2023-02-21T19:47:52.861Z,2.60
2023-02-21T19:50:58.747Z,2.83
2023-02-21T19:54:02.782Z,2.83
2023-02-21T19:57:06.208Z,2.92
2023-02-21T20:00:11.877Z,3.08
2023-02-21T20:03:18.216Z,3.03
2023-02-21T20:06:24.717Z,2.92
2023-02-21T20:09:28.709Z,3.40
2023-02-21T20:12:31.577Z,3.00
2023-02-21T20:15:36.146Z,2.85
2023-02-21T20:18:41.797Z,2.90
2023-02-21T20:21:45.952Z,3.15
2023-02-21T20:24:49.863Z,2.72
2023-02-21T20:27:54.830Z,2.90
2023-02-21T20:30:58.335Z,3.10
2023-02-21T20:34:03.125Z,3.00
2023-02-21T20:37:06.718Z,3.05
2023-02-21T20:40:11.140Z,3.53
2023-02-21T20:43:14.282Z,3.30
2023-02-21T20:46:22.833Z,3.42
2023-02-21T20:49:26.127Z,3.30
2023-02-21T20:52:29.836Z,3.72
2023-02-21T20:55:32.702Z,4.15
2023-02-21T20:58:37.356Z,3.22
2023-02-21T21:01:40.260Z,3.40
2023-02-21T21:04:45.748Z,3.00
2023-02-21T21:07:48.851Z,3.00
2023-02-21T21:10:52.400Z,3.08
2023-02-21T21:13:55.385Z,3.25
2023-02-21T21:17:00.626Z,3.50
2023-02-21T21:20:10.471Z,3.37
2023-02-21T21:23:13.978Z,3.20
2023-02-21T21:26:17.031Z,3.55
2023-02-21T21:29:22.528Z,3.20
2023-02-21T21:32:25.396Z,3.75
2023-02-21T21:35:32.416Z,3.77
2023-02-21T21:38:38.801Z,3.38
2023-02-21T21:41:46.554Z,3.97
2023-02-21T21:44:53.893Z,3.50
2023-02-21T21:48:00.316Z,2.83
2023-02-21T21:51:03.961Z,3.50
2023-02-21T21:54:07.321Z,3.53
2023-02-21T21:57:10.850Z,3.20
2023-02-21T22:00:24.516Z,3.22
2023-02-21T22:03:29.158Z,3.33
2023-02-21T22:06:32.070Z,3.53
2023-02-21T22:09:35.667Z,3.70
2023-02-21T22:12:39.375Z,3.83
2023-02-21T22:15:43.838Z,3.50
2023-02-21T22:18:46.988Z,3.28
2023-02-21T22:21:54.784Z,3.40
2023-02-21T22:24:57.351Z,3.45
2023-02-21T22:28:04.540Z,3.38
2023-02-21T22:31:10.173Z,3.05
2023-02-21T22:34:23.731Z,3.60
2023-02-21T22:37:28.260Z,3.80
2023-02-21T22:40:35.591Z,3.63
2023-02-21T22:43:40.440Z,3.10
2023-02-21T22:46:46.547Z,3.33
2023-02-21T22:49:49.964Z,3.42
2023-02-21T22:52:59.716Z,3.60
2023-02-21T22:56:03.441Z,4.10
2023-02-21T22:59:15.195Z,3.65
2023-02-21T23:02:18.486Z,3.50
2023-02-21T23:05:22.087Z,3.42
2023-02-21T23:08:27.166Z,3.30
2023-02-21T23:11:31.340Z,3.58
2023-02-21T23:14:35.407Z,3.95
2023-02-21T23:17:38.384Z,4.00
2023-02-21T23:20:44.845Z,3.80
2023-02-21T23:23:47.936Z,3.70
2023-02-21T23:26:54.008Z,3.20
2023-02-21T23:29:56.831Z,3.78
2023-02-21T23:33:00.581Z,3.45
2023-02-21T23:36:04.808Z,3.70
2023-02-21T23:39:11.657Z,3.80
2023-02-21T23:42:17.511Z,3.67
2023-02-21T23:45:23.359Z,3.88
2023-02-21T23:48:26.658Z,3.70
2023-02-21T23:51:30.206Z,4.07
2023-02-21T23:54:32.787Z,3.83
2023-02-21T23:57:35.542Z,3.60
